sensor_id;sensor_type;location;lat;lon;timestamp;P1;durP1;ratioP1;P2;durP2;ratioP2
21297;SDS011;10808;48.010;11.326;2023-09-08T00:01:52;9.02;;;6.50;;
21297;SDS011;10808;48.010;11.326;2023-09-08T00:04:18;8.57;;;6.47;;
21297;SDS011;10808;48.010;11.326;2023-09-08T00:06:46;6.88;;;6.10;;
21297;SDS011;10808;48.010;11.326;2023-09-08T00:09:12;8.30;;;5.97;;
21297;SDS011;10808;48.010;11.326;2023-09-08T00:11:38;8.35;;;6.30;;
21297;SDS011;10808;48.010;11.326;2023-09-08T00:14:04;7.50;;;6.32;;
21297;SDS011;10808;48.010;11.326;2023-09-08T00:16:30;7.20;;;6.20;;
21297;SDS011;10808;48.010;11.326;2023-09-08T00:18:56;7.25;;;6.40;;
21297;SDS011;10808;48.010;11.326;2023-09-08T00:21:25;7.78;;;6.30;;
21297;SDS011;10808;48.010;11.326;2023-09-08T00:23:52;7.13;;;6.32;;
21297;SDS011;10808;48.010;11.326;2023-09-08T00:26:18;8.52;;;6.53;;
21297;SDS011;10808;48.010;11.326;2023-09-08T00:28:45;10.32;;;6.53;;
21297;SDS011;10808;48.010;11.326;2023-09-08T00:31:11;7.32;;;6.15;;
21297;SDS011;10808;48.010;11.326;2023-09-08T00:33:37;7.80;;;6.05;;
21297;SDS011;10808;48.010;11.326;2023-09-08T00:36:03;7.00;;;6.15;;
21297;SDS011;10808;48.010;11.326;2023-09-08T00:38:29;8.57;;;6.10;;
21297;SDS011;10808;48.010;11.326;2023-09-08T00:40:55;7.97;;;6.35;;
21297;SDS011;10808;48.010;11.326;2023-09-08T00:43:21;7.55;;;6.25;;
21297;SDS011;10808;48.010;11.326;2023-09-08T00:45:47;7.75;;;6.43;;
21297;SDS011;10808;48.010;11.326;2023-09-08T00:48:13;7.38;;;6.45;;
21297;SDS011;10808;48.010;11.326;2023-09-08T00:50:41;7.13;;;6.43;;
21297;SDS011;10808;48.010;11.326;2023-09-08T00:53:07;8.57;;;6.30;;
21297;SDS011;10808;48.010;11.326;2023-09-08T00:55:33;8.15;;;5.95;;
21297;SDS011;10808;48.010;11.326;2023-09-08T00:58:00;7.50;;;6.30;;
21297;SDS011;10808;48.010;11.326;2023-09-08T01:00:27;7.53;;;6.33;;
21297;SDS011;10808;48.010;11.326;2023-09-08T01:02:53;8.57;;;6.13;;
21297;SDS011;10808;48.010;11.326;2023-09-08T01:05:19;8.68;;;6.22;;
21297;SDS011;10808;48.010;11.326;2023-09-08T01:07:46;11.68;;;6.65;;
21297;SDS011;10808;48.010;11.326;2023-09-08T01:10:14;8.37;;;6.57;;
21297;SDS011;10808;48.010;11.326;2023-09-08T01:12:41;8.27;;;6.57;;
21297;SDS011;10808;48.010;11.326;2023-09-08T01:15:07;8.37;;;6.30;;
21297;SDS011;10808;48.010;11.326;2023-09-08T01:17:33;7.53;;;6.45;;
21297;SDS011;10808;48.010;11.326;2023-09-08T01:20:21;8.27;;;6.47;;
21297;SDS011;10808;48.010;11.326;2023-09-08T01:25:30;8.47;;;6.00;;
21297;SDS011;10808;48.010;11.326;2023-09-08T01:27:58;7.57;;;6.22;;
21297;SDS011;10808;48.010;11.326;2023-09-08T01:30:27;6.63;;;5.88;;
21297;SDS011;10808;48.010;11.326;2023-09-08T01:32:54;8.27;;;6.43;;
21297;SDS011;10808;48.010;11.326;2023-09-08T01:35:21;7.18;;;6.47;;
21297;SDS011;10808;48.010;11.326;2023-09-08T01:37:48;8.75;;;6.43;;
21297;SDS011;10808;48.010;11.326;2023-09-08T01:40:15;8.63;;;6.73;;
21297;SDS011;10808;48.010;11.326;2023-09-08T01:42:41;8.30;;;6.53;;
21297;SDS011;10808;48.010;11.326;2023-09-08T01:45:08;8.47;;;6.43;;
21297;SDS011;10808;48.010;11.326;2023-09-08T01:47:34;8.63;;;6.43;;
21297;SDS011;10808;48.010;11.326;2023-09-08T01:50:00;7.53;;;6.20;;
21297;SDS011;10808;48.010;11.326;2023-09-08T01:52:27;7.38;;;6.55;;
21297;SDS011;10808;48.010;11.326;2023-09-08T01:54:53;7.65;;;6.30;;
21297;SDS011;10808;48.010;11.326;2023-09-08T01:57:19;7.22;;;6.30;;
21297;SDS011;10808;48.010;11.326;2023-09-08T01:59:45;8.10;;;6.70;;
21297;SDS011;10808;48.010;11.326;2023-09-08T02:02:11;8.13;;;6.57;;
21297;SDS011;10808;48.010;11.326;2023-09-08T02:04:37;7.57;;;6.10;;
21297;SDS011;10808;48.010;11.326;2023-09-08T02:07:03;8.00;;;6.47;;
21297;SDS011;10808;48.010;11.326;2023-09-08T02:09:31;7.45;;;6.40;;
21297;SDS011;10808;48.010;11.326;2023-09-08T02:11:58;8.15;;;6.22;;
21297;SDS011;10808;48.010;11.326;2023-09-08T02:14:24;7.38;;;6.38;;
21297;SDS011;10808;48.010;11.326;2023-09-08T02:16:50;7.57;;;6.27;;
21297;SDS011;10808;48.010;11.326;2023-09-08T02:19:16;9.30;;;6.63;;
21297;SDS011;10808;48.010;11.326;2023-09-08T02:21:43;8.60;;;6.78;;
21297;SDS011;10808;48.010;11.326;2023-09-08T02:24:09;9.93;;;7.00;;
21297;SDS011;10808;48.010;11.326;2023-09-08T02:26:35;9.98;;;7.20;;
21297;SDS011;10808;48.010;11.326;2023-09-08T02:29:01;7.53;;;6.57;;
21297;SDS011;10808;48.010;11.326;2023-09-08T02:31:28;9.73;;;7.40;;
21297;SDS011;10808;48.010;11.326;2023-09-08T02:33:54;8.48;;;6.65;;
21297;SDS011;10808;48.010;11.326;2023-09-08T02:36:20;7.93;;;7.05;;
21297;SDS011;10808;48.010;11.326;2023-09-08T02:38:51;7.50;;;6.70;;
21297;SDS011;10808;48.010;11.326;2023-09-08T02:41:17;10.45;;;7.00;;
21297;SDS011;10808;48.010;11.326;2023-09-08T02:43:44;7.50;;;6.70;;
21297;SDS011;10808;48.010;11.326;2023-09-08T02:46:10;7.93;;;7.13;;
21297;SDS011;10808;48.010;11.326;2023-09-08T02:48:36;8.00;;;6.47;;
21297;SDS011;10808;48.010;11.326;2023-09-08T02:51:02;9.00;;;6.78;;
21297;SDS011;10808;48.010;11.326;2023-09-08T02:53:28;7.55;;;6.75;;
21297;SDS011;10808;48.010;11.326;2023-09-08T02:55:54;7.90;;;6.88;;
21297;SDS011;10808;48.010;11.326;2023-09-08T02:58:21;9.30;;;7.10;;
21297;SDS011;10808;48.010;11.326;2023-09-08T03:00:47;10.95;;;7.05;;
21297;SDS011;10808;48.010;11.326;2023-09-08T03:03:13;8.35;;;6.68;;
21297;SDS011;10808;48.010;11.326;2023-09-08T03:05:39;8.18;;;6.88;;
21297;SDS011;10808;48.010;11.326;2023-09-08T03:08:05;9.88;;;6.95;;
21297;SDS011;10808;48.010;11.326;2023-09-08T03:10:32;8.83;;;6.83;;
21297;SDS011;10808;48.010;11.326;2023-09-08T03:13:00;8.95;;;6.95;;
21297;SDS011;10808;48.010;11.326;2023-09-08T03:15:26;7.72;;;6.90;;
21297;SDS011;10808;48.010;11.326;2023-09-08T03:17:55;8.80;;;6.88;;
21297;SDS011;10808;48.010;11.326;2023-09-08T03:20:24;7.63;;;6.83;;
21297;SDS011;10808;48.010;11.326;2023-09-08T03:22:54;7.40;;;6.30;;
21297;SDS011;10808;48.010;11.326;2023-09-08T03:25:20;7.70;;;6.80;;
21297;SDS011;10808;48.010;11.326;2023-09-08T03:27:47;8.13;;;6.97;;
21297;SDS011;10808;48.010;11.326;2023-09-08T03:30:13;7.85;;;6.82;;
21297;SDS011;10808;48.010;11.326;2023-09-08T03:32:39;10.30;;;7.03;;
21297;SDS011;10808;48.010;11.326;2023-09-08T03:35:05;7.68;;;6.63;;
21297;SDS011;10808;48.010;11.326;2023-09-08T03:37:34;9.90;;;7.00;;
21297;SDS011;10808;48.010;11.326;2023-09-08T03:40:00;10.15;;;7.22;;
21297;SDS011;10808;48.010;11.326;2023-09-08T03:42:26;7.50;;;6.70;;
21297;SDS011;10808;48.010;11.326;2023-09-08T03:44:52;8.20;;;6.70;;
21297;SDS011;10808;48.010;11.326;2023-09-08T03:47:18;10.73;;;7.13;;
21297;SDS011;10808;48.010;11.326;2023-09-08T03:49:44;7.82;;;6.72;;
21297;SDS011;10808;48.010;11.326;2023-09-08T03:52:10;10.07;;;7.00;;
21297;SDS011;10808;48.010;11.326;2023-09-08T03:54:37;8.43;;;7.38;;
21297;SDS011;10808;48.010;11.326;2023-09-08T03:57:03;8.82;;;7.47;;
21297;SDS011;10808;48.010;11.326;2023-09-08T03:59:30;9.98;;;7.35;;
21297;SDS011;10808;48.010;11.326;2023-09-08T04:01:56;8.52;;;7.03;;
21297;SDS011;10808;48.010;11.326;2023-09-08T04:04:23;8.73;;;7.38;;
21297;SDS011;10808;48.010;11.326;2023-09-08T04:06:49;9.85;;;7.72;;
21297;SDS011;10808;48.010;11.326;2023-09-08T04:09:15;9.63;;;8.00;;
21297;SDS011;10808;48.010;11.326;2023-09-08T04:11:41;10.60;;;8.00;;
21297;SDS011;10808;48.010;11.326;2023-09-08T04:14:07;11.13;;;8.07;;
21297;SDS011;10808;48.010;11.326;2023-09-08T04:16:33;10.55;;;8.25;;
21297;SDS011;10808;48.010;11.326;2023-09-08T04:18:59;10.10;;;8.77;;
21297;SDS011;10808;48.010;11.326;2023-09-08T04:21:25;11.00;;;9.05;;
21297;SDS011;10808;48.010;11.326;2023-09-08T04:23:51;11.02;;;9.10;;
21297;SDS011;10808;48.010;11.326;2023-09-08T04:26:17;11.88;;;9.70;;
21297;SDS011;10808;48.010;11.326;2023-09-08T04:28:43;12.30;;;10.57;;
21297;SDS011;10808;48.010;11.326;2023-09-08T04:31:09;13.38;;;9.65;;
21297;SDS011;10808;48.010;11.326;2023-09-08T04:33:35;12.70;;;10.05;;
21297;SDS011;10808;48.010;11.326;2023-09-08T04:36:01;11.65;;;10.38;;
21297;SDS011;10808;48.010;11.326;2023-09-08T04:38:27;15.82;;;10.75;;
21297;SDS011;10808;48.010;11.326;2023-09-08T04:40:53;12.60;;;10.52;;
21297;SDS011;10808;48.010;11.326;2023-09-08T04:43:19;18.15;;;13.40;;
21297;SDS011;10808;48.010;11.326;2023-09-08T04:45:45;17.05;;;13.25;;
21297;SDS011;10808;48.010;11.326;2023-09-08T04:48:11;17.60;;;14.05;;
21297;SDS011;10808;48.010;11.326;2023-09-08T04:50:37;17.25;;;14.10;;
21297;SDS011;10808;48.010;11.326;2023-09-08T04:53:03;17.88;;;14.10;;
21297;SDS011;10808;48.010;11.326;2023-09-08T04:55:29;17.05;;;13.60;;
21297;SDS011;10808;48.010;11.326;2023-09-08T04:57:55;16.23;;;13.88;;
21297;SDS011;10808;48.010;11.326;2023-09-08T05:00:21;17.27;;;13.10;;
21297;SDS011;10808;48.010;11.326;2023-09-08T05:02:47;14.90;;;13.30;;
21297;SDS011;10808;48.010;11.326;2023-09-08T05:05:13;16.45;;;12.63;;
21297;SDS011;10808;48.010;11.326;2023-09-08T05:07:39;14.70;;;12.77;;
21297;SDS011;10808;48.010;11.326;2023-09-08T05:10:06;15.30;;;12.80;;
21297;SDS011;10808;48.010;11.326;2023-09-08T05:12:32;15.52;;;12.25;;
21297;SDS011;10808;48.010;11.326;2023-09-08T05:14:58;16.00;;;12.38;;
21297;SDS011;10808;48.010;11.326;2023-09-08T05:17:32;16.00;;;12.67;;
21297;SDS011;10808;48.010;11.326;2023-09-08T05:19:58;13.25;;;11.75;;
21297;SDS011;10808;48.010;11.326;2023-09-08T05:22:24;13.65;;;11.95;;
21297;SDS011;10808;48.010;11.326;2023-09-08T05:24:50;14.90;;;12.33;;
21297;SDS011;10808;48.010;11.326;2023-09-08T05:27:16;16.55;;;12.60;;
21297;SDS011;10808;48.010;11.326;2023-09-08T05:29:42;14.88;;;12.20;;
21297;SDS011;10808;48.010;11.326;2023-09-08T05:32:08;13.73;;;10.90;;
21297;SDS011;10808;48.010;11.326;2023-09-08T05:34:34;17.35;;;11.77;;
21297;SDS011;10808;48.010;11.326;2023-09-08T05:37:00;13.88;;;12.00;;
21297;SDS011;10808;48.010;11.326;2023-09-08T05:39:26;16.35;;;12.40;;
21297;SDS011;10808;48.010;11.326;2023-09-08T05:41:52;13.00;;;11.30;;
21297;SDS011;10808;48.010;11.326;2023-09-08T05:44:18;13.07;;;11.32;;
21297;SDS011;10808;48.010;11.326;2023-09-08T05:46:44;12.02;;;10.73;;
21297;SDS011;10808;48.010;11.326;2023-09-08T05:49:10;14.15;;;11.00;;
21297;SDS011;10808;48.010;11.326;2023-09-08T05:51:36;14.10;;;11.60;;
21297;SDS011;10808;48.010;11.326;2023-09-08T05:54:02;17.43;;;13.03;;
21297;SDS011;10808;48.010;11.326;2023-09-08T05:56:29;16.25;;;12.80;;
21297;SDS011;10808;48.010;11.326;2023-09-08T05:58:56;14.40;;;12.00;;
21297;SDS011;10808;48.010;11.326;2023-09-08T06:01:22;15.32;;;12.05;;
21297;SDS011;10808;48.010;11.326;2023-09-08T06:03:48;17.00;;;12.73;;
21297;SDS011;10808;48.010;11.326;2023-09-08T06:06:14;17.48;;;12.85;;
21297;SDS011;10808;48.010;11.326;2023-09-08T06:08:40;15.52;;;12.48;;
21297;SDS011;10808;48.010;11.326;2023-09-08T06:11:06;16.15;;;12.52;;
21297;SDS011;10808;48.010;11.326;2023-09-08T06:13:32;15.93;;;12.60;;
21297;SDS011;10808;48.010;11.326;2023-09-08T06:15:59;13.65;;;11.85;;
21297;SDS011;10808;48.010;11.326;2023-09-08T06:18:27;13.80;;;11.60;;
21297;SDS011;10808;48.010;11.326;2023-09-08T06:20:53;13.93;;;11.70;;
21297;SDS011;10808;48.010;11.326;2023-09-08T06:23:19;13.20;;;11.27;;
21297;SDS011;10808;48.010;11.326;2023-09-08T06:25:45;12.18;;;10.90;;
21297;SDS011;10808;48.010;11.326;2023-09-08T06:28:12;13.18;;;10.93;;
21297;SDS011;10808;48.010;11.326;2023-09-08T06:30:38;12.50;;;10.73;;
21297;SDS011;10808;48.010;11.326;2023-09-08T06:33:07;12.07;;;10.50;;
21297;SDS011;10808;48.010;11.326;2023-09-08T06:35:33;12.07;;;10.88;;
21297;SDS011;10808;48.010;11.326;2023-09-08T06:38:00;11.93;;;10.43;;
21297;SDS011;10808;48.010;11.326;2023-09-08T06:40:26;11.48;;;10.25;;
21297;SDS011;10808;48.010;11.326;2023-09-08T06:42:54;14.07;;;10.27;;
21297;SDS011;10808;48.010;11.326;2023-09-08T06:45:20;14.10;;;10.20;;
21297;SDS011;10808;48.010;11.326;2023-09-08T06:47:46;11.18;;;9.90;;
21297;SDS011;10808;48.010;11.326;2023-09-08T06:50:14;11.00;;;9.82;;
21297;SDS011;10808;48.010;11.326;2023-09-08T06:52:40;11.93;;;9.32;;
21297;SDS011;10808;48.010;11.326;2023-09-08T06:55:07;12.38;;;8.93;;
21297;SDS011;10808;48.010;11.326;2023-09-08T06:57:33;11.15;;;9.07;;
21297;SDS011;10808;48.010;11.326;2023-09-08T06:59:59;10.43;;;9.38;;
21297;SDS011;10808;48.010;11.326;2023-09-08T07:02:25;10.20;;;8.88;;
21297;SDS011;10808;48.010;11.326;2023-09-08T07:04:51;11.52;;;9.23;;
21297;SDS011;10808;48.010;11.326;2023-09-08T07:07:17;9.85;;;8.70;;
21297;SDS011;10808;48.010;11.326;2023-09-08T07:09:45;9.90;;;8.90;;
21297;SDS011;10808;48.010;11.326;2023-09-08T07:12:12;10.63;;;8.60;;
21297;SDS011;10808;48.010;11.326;2023-09-08T07:14:38;9.85;;;8.55;;
21297;SDS011;10808;48.010;11.326;2023-09-08T07:17:04;9.27;;;7.82;;
21297;SDS011;10808;48.010;11.326;2023-09-08T07:19:30;9.18;;;8.13;;
21297;SDS011;10808;48.010;11.326;2023-09-08T07:21:56;8.57;;;7.70;;
21297;SDS011;10808;48.010;11.326;2023-09-08T07:24:22;8.57;;;7.60;;
21297;SDS011;10808;48.010;11.326;2023-09-08T07:26:48;8.88;;;7.93;;
21297;SDS011;10808;48.010;11.326;2023-09-08T07:29:14;8.82;;;7.90;;
21297;SDS011;10808;48.010;11.326;2023-09-08T07:31:40;10.20;;;8.20;;
21297;SDS011;10808;48.010;11.326;2023-09-08T07:34:06;10.05;;;8.43;;
21297;SDS011;10808;48.010;11.326;2023-09-08T07:36:32;9.55;;;8.40;;
21297;SDS011;10808;48.010;11.326;2023-09-08T07:38:59;9.35;;;8.20;;
21297;SDS011;10808;48.010;11.326;2023-09-08T07:41:26;9.30;;;7.90;;
21297;SDS011;10808;48.010;11.326;2023-09-08T07:43:52;9.85;;;8.40;;
21297;SDS011;10808;48.010;11.326;2023-09-08T07:46:18;9.13;;;8.00;;
21297;SDS011;10808;48.010;11.326;2023-09-08T07:48:44;9.85;;;8.60;;
21297;SDS011;10808;48.010;11.326;2023-09-08T07:51:10;9.18;;;8.10;;
21297;SDS011;10808;48.010;11.326;2023-09-08T07:53:36;8.95;;;8.05;;
21297;SDS011;10808;48.010;11.326;2023-09-08T07:56:02;12.77;;;9.10;;
21297;SDS011;10808;48.010;11.326;2023-09-08T07:58:29;9.23;;;8.07;;
21297;SDS011;10808;48.010;11.326;2023-09-08T08:00:55;11.10;;;7.63;;
21297;SDS011;10808;48.010;11.326;2023-09-08T08:03:21;9.02;;;7.82;;
21297;SDS011;10808;48.010;11.326;2023-09-08T08:05:47;8.50;;;7.30;;
21297;SDS011;10808;48.010;11.326;2023-09-08T08:08:13;10.85;;;7.82;;
21297;SDS011;10808;48.010;11.326;2023-09-08T08:10:40;10.45;;;7.80;;
21297;SDS011;10808;48.010;11.326;2023-09-08T08:13:07;9.70;;;7.53;;
21297;SDS011;10808;48.010;11.326;2023-09-08T08:15:40;9.00;;;7.60;;
21297;SDS011;10808;48.010;11.326;2023-09-08T08:18:08;9.05;;;8.15;;
21297;SDS011;10808;48.010;11.326;2023-09-08T08:20:37;9.63;;;7.85;;
21297;SDS011;10808;48.010;11.326;2023-09-08T08:23:03;8.50;;;7.60;;
21297;SDS011;10808;48.010;11.326;2023-09-08T08:25:31;9.03;;;8.13;;
21297;SDS011;10808;48.010;11.326;2023-09-08T08:27:58;9.32;;;7.80;;
21297;SDS011;10808;48.010;11.326;2023-09-08T08:30:26;9.38;;;8.00;;
21297;SDS011;10808;48.010;11.326;2023-09-08T08:32:52;8.85;;;7.95;;
21297;SDS011;10808;48.010;11.326;2023-09-08T08:35:19;8.05;;;7.25;;
21297;SDS011;10808;48.010;11.326;2023-09-08T08:37:45;9.85;;;8.40;;
21297;SDS011;10808;48.010;11.326;2023-09-08T08:40:11;8.37;;;7.53;;
21297;SDS011;10808;48.010;11.326;2023-09-08T08:42:38;11.63;;;7.28;;
21297;SDS011;10808;48.010;11.326;2023-09-08T08:45:05;8.10;;;7.20;;
21297;SDS011;10808;48.010;11.326;2023-09-08T08:47:31;9.80;;;7.72;;
21297;SDS011;10808;48.010;11.326;2023-09-08T08:49:58;9.00;;;7.60;;
21297;SDS011;10808;48.010;11.326;2023-09-08T08:52:25;9.27;;;7.70;;
21297;SDS011;10808;48.010;11.326;2023-09-08T08:54:52;8.23;;;7.43;;
21297;SDS011;10808;48.010;11.326;2023-09-08T08:57:19;8.30;;;7.50;;
21297;SDS011;10808;48.010;11.326;2023-09-08T08:59:46;8.43;;;7.63;;
21297;SDS011;10808;48.010;11.326;2023-09-08T09:02:14;8.35;;;7.55;;
21297;SDS011;10808;48.010;11.326;2023-09-08T09:04:40;8.80;;;7.90;;
21297;SDS011;10808;48.010;11.326;2023-09-08T09:07:07;9.77;;;7.60;;
21297;SDS011;10808;48.010;11.326;2023-09-08T09:09:33;8.20;;;7.40;;
21297;SDS011;10808;48.010;11.326;2023-09-08T09:11:59;7.77;;;7.03;;
21297;SDS011;10808;48.010;11.326;2023-09-08T09:14:27;8.80;;;7.90;;
21297;SDS011;10808;48.010;11.326;2023-09-08T09:16:58;9.07;;;7.53;;
21297;SDS011;10808;48.010;11.326;2023-09-08T09:19:25;8.80;;;7.90;;
21297;SDS011;10808;48.010;11.326;2023-09-08T09:21:53;8.52;;;7.70;;
21297;SDS011;10808;48.010;11.326;2023-09-08T09:24:30;8.23;;;7.43;;
21297;SDS011;10808;48.010;11.326;2023-09-08T09:27:00;8.50;;;7.40;;
21297;SDS011;10808;48.010;11.326;2023-09-08T09:29:27;8.33;;;7.53;;
21297;SDS011;10808;48.010;11.326;2023-09-08T09:32:02;9.90;;;7.57;;
21297;SDS011;10808;48.010;11.326;2023-09-08T09:34:29;9.05;;;7.85;;
21297;SDS011;10808;48.010;11.326;2023-09-08T09:36:56;8.13;;;7.32;;
21297;SDS011;10808;48.010;11.326;2023-09-08T09:39:23;8.60;;;7.57;;
21297;SDS011;10808;48.010;11.326;2023-09-08T09:41:53;9.10;;;7.43;;
21297;SDS011;10808;48.010;11.326;2023-09-08T09:44:24;7.95;;;7.15;;
21297;SDS011;10808;48.010;11.326;2023-09-08T09:46:52;7.93;;;7.22;;
21297;SDS011;10808;48.010;11.326;2023-09-08T09:49:18;7.43;;;6.63;;
21297;SDS011;10808;48.010;11.326;2023-09-08T09:51:48;10.73;;;7.07;;
21297;SDS011;10808;48.010;11.326;2023-09-08T09:54:19;7.83;;;7.03;;
21297;SDS011;10808;48.010;11.326;2023-09-08T09:56:45;8.52;;;6.72;;
21297;SDS011;10808;48.010;11.326;2023-09-08T09:59:17;7.60;;;6.93;;
21297;SDS011;10808;48.010;11.326;2023-09-08T10:01:43;7.57;;;6.72;;
21297;SDS011;10808;48.010;11.326;2023-09-08T10:04:09;7.63;;;6.82;;
21297;SDS011;10808;48.010;11.326;2023-09-08T10:06:36;8.32;;;6.88;;
21297;SDS011;10808;48.010;11.326;2023-09-08T10:09:04;7.45;;;6.78;;
21297;SDS011;10808;48.010;11.326;2023-09-08T10:11:42;8.43;;;6.70;;
21297;SDS011;10808;48.010;11.326;2023-09-08T10:14:15;8.15;;;6.93;;
21297;SDS011;10808;48.010;11.326;2023-09-08T10:16:43;7.95;;;7.20;;
21297;SDS011;10808;48.010;11.326;2023-09-08T10:19:11;7.25;;;6.55;;
21297;SDS011;10808;48.010;11.326;2023-09-08T10:21:39;9.43;;;6.80;;
21297;SDS011;10808;48.010;11.326;2023-09-08T10:24:14;7.75;;;7.05;;
21297;SDS011;10808;48.010;11.326;2023-09-08T10:26:46;7.97;;;6.57;;
21297;SDS011;10808;48.010;11.326;2023-09-08T10:29:20;7.72;;;6.85;;
21297;SDS011;10808;48.010;11.326;2023-09-08T10:31:48;7.63;;;6.53;;
21297;SDS011;10808;48.010;11.326;2023-09-08T10:34:14;8.02;;;7.22;;
21297;SDS011;10808;48.010;11.326;2023-09-08T10:36:41;7.40;;;6.70;;
21297;SDS011;10808;48.010;11.326;2023-09-08T10:47:24;7.70;;;6.97;;
21297;SDS011;10808;48.010;11.326;2023-09-08T10:49:51;7.80;;;7.05;;
21297;SDS011;10808;48.010;11.326;2023-09-08T10:52:23;7.53;;;6.80;;
21297;SDS011;10808;48.010;11.326;2023-09-08T10:54:53;8.00;;;7.20;;
21297;SDS011;10808;48.010;11.326;2023-09-08T10:57:21;8.10;;;7.30;;
21297;SDS011;10808;48.010;11.326;2023-09-08T10:59:53;8.05;;;7.28;;
21297;SDS011;10808;48.010;11.326;2023-09-08T11:02:31;8.20;;;7.07;;
21297;SDS011;10808;48.010;11.326;2023-09-08T11:05:07;8.00;;;7.30;;
21297;SDS011;10808;48.010;11.326;2023-09-08T11:07:38;7.85;;;7.15;;
21297;SDS011;10808;48.010;11.326;2023-09-08T11:10:04;8.02;;;7.03;;
21297;SDS011;10808;48.010;11.326;2023-09-08T11:12:31;7.45;;;6.75;;
21297;SDS011;10808;48.010;11.326;2023-09-08T11:14:58;8.20;;;7.40;;
21297;SDS011;10808;48.010;11.326;2023-09-08T11:17:30;7.72;;;6.97;;
21297;SDS011;10808;48.010;11.326;2023-09-08T11:19:56;7.55;;;6.80;;
21297;SDS011;10808;48.010;11.326;2023-09-08T11:22:23;8.07;;;7.28;;
21297;SDS011;10808;48.010;11.326;2023-09-08T11:24:51;7.53;;;6.87;;
21297;SDS011;10808;48.010;11.326;2023-09-08T11:27:17;7.53;;;6.70;;
21297;SDS011;10808;48.010;11.326;2023-09-08T11:29:44;7.53;;;6.60;;
21297;SDS011;10808;48.010;11.326;2023-09-08T11:32:11;7.53;;;6.53;;
21297;SDS011;10808;48.010;11.326;2023-09-08T11:34:37;9.60;;;6.77;;
21297;SDS011;10808;48.010;11.326;2023-09-08T11:37:10;9.00;;;7.40;;
21297;SDS011;10808;48.010;11.326;2023-09-08T11:39:41;8.93;;;6.67;;
21297;SDS011;10808;48.010;11.326;2023-09-08T11:42:08;8.25;;;6.85;;
21297;SDS011;10808;48.010;11.326;2023-09-08T11:44:37;7.72;;;7.03;;
21297;SDS011;10808;48.010;11.326;2023-09-08T11:47:03;7.70;;;7.00;;
21297;SDS011;10808;48.010;11.326;2023-09-08T11:49:35;7.95;;;7.03;;
21297;SDS011;10808;48.010;11.326;2023-09-08T11:52:02;8.05;;;7.07;;
21297;SDS011;10808;48.010;11.326;2023-09-08T11:54:29;7.50;;;6.90;;
21297;SDS011;10808;48.010;11.326;2023-09-08T11:57:01;8.00;;;7.05;;
21297;SDS011;10808;48.010;11.326;2023-09-08T11:59:33;7.80;;;7.10;;
21297;SDS011;10808;48.010;11.326;2023-09-08T12:02:00;8.23;;;7.43;;
21297;SDS011;10808;48.010;11.326;2023-09-08T12:04:26;7.88;;;6.88;;
21297;SDS011;10808;48.010;11.326;2023-09-08T12:06:53;7.30;;;6.50;;
21297;SDS011;10808;48.010;11.326;2023-09-08T12:09:23;7.75;;;6.88;;
21297;SDS011;10808;48.010;11.326;2023-09-08T12:11:49;7.80;;;7.07;;
21297;SDS011;10808;48.010;11.326;2023-09-08T12:14:15;8.93;;;6.60;;
21297;SDS011;10808;48.010;11.326;2023-09-08T12:16:41;7.70;;;6.95;;
21297;SDS011;10808;48.010;11.326;2023-09-08T12:19:08;7.90;;;6.80;;
21297;SDS011;10808;48.010;11.326;2023-09-08T12:21:59;8.55;;;7.30;;
21297;SDS011;10808;48.010;11.326;2023-09-08T12:24:46;7.38;;;6.57;;
21297;SDS011;10808;48.010;11.326;2023-09-08T12:27:22;8.38;;;7.22;;
21297;SDS011;10808;48.010;11.326;2023-09-08T12:29:59;7.50;;;6.80;;
21297;SDS011;10808;48.010;11.326;2023-09-08T12:32:26;8.63;;;7.03;;
21297;SDS011;10808;48.010;11.326;2023-09-08T12:34:55;8.10;;;7.30;;
21297;SDS011;10808;48.010;11.326;2023-09-08T12:37:24;7.65;;;6.95;;
21297;SDS011;10808;48.010;11.326;2023-09-08T12:39:55;7.50;;;6.70;;
21297;SDS011;10808;48.010;11.326;2023-09-08T12:42:22;8.90;;;6.80;;
21297;SDS011;10808;48.010;11.326;2023-09-08T12:44:54;8.60;;;6.80;;
21297;SDS011;10808;48.010;11.326;2023-09-08T12:47:20;9.27;;;7.07;;
21297;SDS011;10808;48.010;11.326;2023-09-08T12:49:46;8.00;;;6.70;;
21297;SDS011;10808;48.010;11.326;2023-09-08T12:52:12;10.98;;;7.00;;
21297;SDS011;10808;48.010;11.326;2023-09-08T12:54:38;7.17;;;6.43;;
21297;SDS011;10808;48.010;11.326;2023-09-08T12:57:04;6.95;;;6.30;;
21297;SDS011;10808;48.010;11.326;2023-09-08T12:59:30;7.40;;;6.50;;
21297;SDS011;10808;48.010;11.326;2023-09-08T13:01:56;11.18;;;7.10;;
21297;SDS011;10808;48.010;11.326;2023-09-08T13:04:23;7.57;;;6.53;;
21297;SDS011;10808;48.010;11.326;2023-09-08T13:06:50;6.97;;;6.20;;
21297;SDS011;10808;48.010;11.326;2023-09-08T13:09:16;7.55;;;5.95;;
21297;SDS011;10808;48.010;11.326;2023-09-08T13:11:42;8.15;;;6.35;;
21297;SDS011;10808;48.010;11.326;2023-09-08T13:14:08;8.93;;;6.20;;
21297;SDS011;10808;48.010;11.326;2023-09-08T13:16:34;6.38;;;5.78;;
21297;SDS011;10808;48.010;11.326;2023-09-08T13:19:00;7.60;;;5.90;;
21297;SDS011;10808;48.010;11.326;2023-09-08T13:21:26;7.53;;;6.18;;
21297;SDS011;10808;48.010;11.326;2023-09-08T13:23:53;8.43;;;6.80;;
21297;SDS011;10808;48.010;11.326;2023-09-08T13:26:19;7.18;;;6.50;;
21297;SDS011;10808;48.010;11.326;2023-09-08T13:28:45;6.87;;;6.10;;
21297;SDS011;10808;48.010;11.326;2023-09-08T13:31:12;10.38;;;6.90;;
21297;SDS011;10808;48.010;11.326;2023-09-08T13:33:38;7.53;;;6.80;;
21297;SDS011;10808;48.010;11.326;2023-09-08T13:36:04;7.90;;;6.80;;
21297;SDS011;10808;48.010;11.326;2023-09-08T13:38:30;8.52;;;6.88;;
21297;SDS011;10808;48.010;11.326;2023-09-08T13:40:56;7.40;;;6.70;;
21297;SDS011;10808;48.010;11.326;2023-09-08T13:43:22;7.70;;;6.85;;
21297;SDS011;10808;48.010;11.326;2023-09-08T13:45:48;6.82;;;6.07;;
21297;SDS011;10808;48.010;11.326;2023-09-08T13:48:14;7.57;;;6.50;;
21297;SDS011;10808;48.010;11.326;2023-09-08T13:50:40;6.70;;;6.00;;
21297;SDS011;10808;48.010;11.326;2023-09-08T13:53:06;8.63;;;6.70;;
21297;SDS011;10808;48.010;11.326;2023-09-08T13:55:32;7.50;;;6.50;;
21297;SDS011;10808;48.010;11.326;2023-09-08T13:57:58;6.85;;;6.13;;
21297;SDS011;10808;48.010;11.326;2023-09-08T14:00:24;8.50;;;6.30;;
21297;SDS011;10808;48.010;11.326;2023-09-08T14:02:51;7.75;;;6.35;;
21297;SDS011;10808;48.010;11.326;2023-09-08T14:05:17;7.45;;;6.53;;
21297;SDS011;10808;48.010;11.326;2023-09-08T14:07:43;9.18;;;5.90;;
21297;SDS011;10808;48.010;11.326;2023-09-08T14:10:09;7.95;;;6.43;;
21297;SDS011;10808;48.010;11.326;2023-09-08T14:12:35;7.30;;;6.50;;
21297;SDS011;10808;48.010;11.326;2023-09-08T14:15:01;8.43;;;6.93;;
21297;SDS011;10808;48.010;11.326;2023-09-08T14:17:28;7.05;;;6.35;;
21297;SDS011;10808;48.010;11.326;2023-09-08T14:19:54;9.63;;;6.33;;
21297;SDS011;10808;48.010;11.326;2023-09-08T14:22:23;7.57;;;6.75;;
21297;SDS011;10808;48.010;11.326;2023-09-08T14:24:50;7.18;;;6.47;;
21297;SDS011;10808;48.010;11.326;2023-09-08T14:27:16;9.83;;;6.97;;
21297;SDS011;10808;48.010;11.326;2023-09-08T14:29:42;7.38;;;6.40;;
21297;SDS011;10808;48.010;11.326;2023-09-08T14:32:08;6.93;;;6.22;;
21297;SDS011;10808;48.010;11.326;2023-09-08T14:34:34;7.38;;;6.13;;
21297;SDS011;10808;48.010;11.326;2023-09-08T14:37:00;8.48;;;6.88;;
21297;SDS011;10808;48.010;11.326;2023-09-08T14:39:26;7.68;;;6.15;;